Time;durP1;ratioP1;P1;durP2;ratioP2;P2;SDS_P1;SDS_P2;PMS_P1;PMS_P2;Temp;Humidity;BMP_temperature;BMP_pressure;BME280_temperature;BME280_humidity;BME280_pressure;Samples;Min_cycle;Max_cycle;Signal;HPM_P1;HPM_P2
2022/06/13 00:00:16;;;;;;;11.20;4.60;;;;;;;13.58;74.28;102013.06;5043579;28;20427;-56
2022/06/13 00:02:42;;;;;;;12.23;5.03;;;;;;;13.52;74.30;102005.69;5040295;28;20024;-57
2022/06/13 00:05:08;;;;;;;12.70;5.20;;;;;;;13.39;74.30;102008.00;5043016;28;20028;-57
2022/06/13 00:07:34;;;;;;;14.60;4.80;;;;;;;13.42;74.58;102013.00;5042432;28;20175;-57
2022/06/13 00:09:59;;;;;;;12.77;4.80;;;;;;;13.38;74.84;102006.31;5042681;28;20024;-57
2022/06/13 00:12:26;;;;;;;12.48;5.47;;;;;;;13.33;74.71;102001.47;5041951;28;20033;-56
2022/06/13 00:14:51;;;;;;;10.85;5.30;;;;;;;13.39;74.78;102011.50;5042555;28;20071;-57
2022/06/13 00:17:17;;;;;;;10.55;4.85;;;;;;;13.30;74.83;102001.81;5041011;28;20064;-57
2022/06/13 00:19:42;;;;;;;10.40;5.20;;;;;;;13.28;74.68;102007.25;5043121;28;20373;-56
2022/06/13 00:22:07;;;;;;;11.15;5.10;;;;;;;13.22;74.88;102002.56;5041733;28;20055;-57
2022/06/13 00:24:34;;;;;;;13.10;4.95;;;;;;;13.17;74.83;102001.34;5041024;28;20025;-56
2022/06/13 00:27:00;;;;;;;12.85;5.22;;;;;;;13.14;75.33;102002.50;5042222;28;20079;-57
2022/06/13 00:29:26;;;;;;;14.57;5.65;;;;;;;13.14;75.42;101999.84;5041932;28;20631;-56
2022/06/13 00:31:51;;;;;;;10.10;5.38;;;;;;;13.26;75.56;101998.59;5044044;28;20131;-57
2022/06/13 00:34:16;;;;;;;10.88;5.15;;;;;;;13.31;75.83;101995.47;5040199;28;20087;-57
2022/06/13 00:36:42;;;;;;;13.02;5.47;;;;;;;13.33;75.50;101994.31;5040264;28;20139;-57
2022/06/13 00:39:07;;;;;;;10.68;5.50;;;;;;;13.39;76.34;101987.50;5040075;28;20086;-56
2022/06/13 00:41:35;;;;;;;11.40;5.55;;;;;;;13.44;75.93;101989.66;5043542;28;20078;-57
2022/06/13 00:44:01;;;;;;;11.85;5.28;;;;;;;13.49;75.80;101987.34;5040896;28;20243;-57
2022/06/13 00:46:31;;;;;;;16.52;5.57;;;;;;;13.53;76.14;101980.69;5042334;28;20032;-57
2022/06/13 00:49:19;;;;;;;14.23;5.93;;;;;;;13.58;75.94;101971.19;5039154;28;20079;-57
2022/06/13 00:51:49;;;;;;;10.10;5.40;;;;;;;13.55;75.94;101976.00;5038258;28;20025;-56
2022/06/13 00:54:17;;;;;;;14.63;5.88;;;;;;;13.52;76.06;101971.00;5041272;28;20040;-57
2022/06/13 00:56:44;;;;;;;13.55;5.78;;;;;;;13.56;76.64;101977.69;5040818;28;20047;-57
2022/06/13 00:59:16;;;;;;;11.55;5.60;;;;;;;13.55;76.35;101962.66;5041170;28;20048;-56
2022/06/13 01:01:41;;;;;;;14.90;5.78;;;;;;;13.67;76.50;101968.56;5037506;28;20037;-57
2022/06/13 01:04:08;;;;;;;16.92;5.93;;;;;;;13.68;77.02;101973.72;5043508;28;20033;-57
2022/06/13 01:06:39;;;;;;;11.63;5.18;;;;;;;13.75;76.64;101971.25;5042326;28;20036;-57
2022/06/13 01:09:08;;;;;;;13.50;5.80;;;;;;;13.74;76.73;101967.75;5041219;28;20072;-56
2022/06/13 01:11:36;;;;;;;15.77;5.95;;;;;;;13.76;76.69;101973.75;5040243;28;20042;-56
2022/06/13 01:14:14;;;;;;;12.77;5.70;;;;;;;13.80;76.90;101974.25;5040138;28;20476;-57
2022/06/13 01:17:06;;;;;;;13.15;5.78;;;;;;;13.83;76.77;101973.91;5038231;28;20112;-58
2022/06/13 01:19:40;;;;;;;18.27;6.05;;;;;;;13.86;76.73;101979.75;5042410;28;20428;-57
2022/06/13 01:22:47;;;;;;;12.88;5.75;;;;;;;13.87;77.02;101984.09;5040149;28;20076;-56
2022/06/13 01:25:15;;;;;;;16.85;6.63;;;;;;;13.73;76.60;101974.06;5036997;28;20531;-56
2022/06/13 01:27:59;;;;;;;13.13;6.15;;;;;;;13.63;76.90;101978.72;5039508;28;20075;-57
2022/06/13 01:30:39;;;;;;;13.80;6.28;;;;;;;13.53;77.01;101989.53;5037638;28;20541;-58
2022/06/13 01:33:17;;;;;;;15.02;6.40;;;;;;;13.42;77.07;101983.66;5042458;28;20067;-57
2022/06/13 01:35:59;;;;;;;11.73;5.90;;;;;;;13.42;77.39;101976.50;5042907;28;20500;-55
2022/06/13 01:38:52;;;;;;;17.67;5.97;;;;;;;13.47;77.37;101965.31;5040620;28;20030;-57
2022/06/13 01:41:23;;;;;;;15.38;6.15;;;;;;;13.55;77.75;101965.34;5039551;28;20041;-57
2022/06/13 01:44:09;;;;;;;13.05;6.38;;;;;;;13.56;77.66;101954.50;5043430;28;20029;-57
2022/06/13 01:46:37;;;;;;;15.50;6.72;;;;;;;13.61;77.85;101956.72;5042229;28;20125;-57
2022/06/13 01:49:31;;;;;;;14.60;6.60;;;;;;;13.68;78.10;101962.22;5038410;28;20025;-57
2022/06/13 01:52:24;;;;;;;13.90;5.80;;;;;;;13.69;77.86;101966.56;5039257;28;20024;-56
2022/06/13 01:55:16;;;;;;;13.60;6.32;;;;;;;13.68;77.93;101968.41;5040913;28;20469;-57
2022/06/13 01:58:02;;;;;;;13.75;6.38;;;;;;;13.65;78.39;101968.72;5041780;28;20033;-57
2022/06/13 02:00:30;;;;;;;14.32;6.25;;;;;;;13.60;78.27;101981.72;5044034;28;20029;-56
2022/06/13 02:03:26;;;;;;;14.82;6.60;;;;;;;13.60;78.53;101984.41;5043982;28;20024;-57
2022/06/13 02:06:05;;;;;;;15.02;6.38;;;;;;;13.53;78.65;101970.84;5045766;28;20516;-57
2022/06/13 02:08:35;;;;;;;;;;;;;;;13.61;78.26;101970.88;5044073;28;20116;-57
2022/06/13 02:11:06;;;;;;;;;;;;;;;13.62;78.46;101971.72;5045069;28;20330;-57
2022/06/13 02:13:37;;;;;;;14.32;6.85;;;;;;;13.55;78.70;101978.69;5044958;28;19913;-56
2022/06/13 02:16:11;;;;;;;13.75;6.43;;;;;;;13.57;78.91;101984.69;5044501;28;20036;-58
2022/06/13 02:18:50;;;;;;;13.15;6.65;;;;;;;13.52;78.82;101979.84;5041877;28;20036;-57
2022/06/13 02:21:16;;;;;;;13.18;6.80;;;;;;;13.47;78.73;101981.34;5044864;28;20064;-57
2022/06/13 02:23:47;;;;;;;16.05;7.15;;;;;;;13.43;79.26;101969.31;5043301;28;20054;-57
2022/06/13 02:26:19;;;;;;;18.15;7.38;;;;;;;13.39;79.18;101966.13;5041175;28;20036;-57
2022/06/13 02:28:53;;;;;;;18.58;7.45;;;;;;;13.35;79.76;101977.31;5044122;28;20116;-56
2022/06/13 02:31:32;;;;;;;19.35;7.15;;;;;;;13.36;79.74;101969.13;5039074;28;20127;-57
2022/06/13 02:34:15;;;;;;;14.32;7.18;;;;;;;13.36;80.40;101965.63;5044151;28;20025;-57
2022/06/13 02:36:53;;;;;;;18.55;8.20;;;;;;;13.36;80.25;101962.97;5045495;28;20063;-57
2022/06/13 02:39:29;;;;;;;20.75;7.95;;;;;;;13.37;80.37;101970.81;5042860;28;20024;-57
2022/06/13 02:42:09;;;;;;;19.50;7.75;;;;;;;13.36;80.79;101965.63;5031456;28;20021;-57
2022/06/13 02:44:41;;;;;;;14.50;7.88;;;;;;;13.35;80.77;101963.97;5041034;28;20040;-57
2022/06/13 02:47:12;;;;;;;22.98;7.95;;;;;;;13.34;80.77;101965.78;5043046;28;20121;-57
2022/06/13 02:49:46;;;;;;;22.08;8.07;;;;;;;13.35;80.73;101963.97;5045284;28;20036;-56
2022/06/13 02:52:27;;;;;;;19.23;7.97;;;;;;;13.35;81.02;101963.97;5041394;28;20025;-56
2022/06/13 02:54:57;;;;;;;18.75;7.75;;;;;;;13.33;80.70;101956.13;5044008;28;20032;-57
2022/06/13 02:57:29;;;;;;;18.25;8.13;;;;;;;13.30;81.18;101946.59;5041604;28;20036;-57
2022/06/13 03:00:08;;;;;;;19.92;8.70;;;;;;;13.26;81.49;101947.91;5040607;28;20269;-56
2022/06/13 03:02:52;;;;;;;;;;;;;;;13.28;81.17;101950.41;5046745;28;20063;-57
2022/06/13 03:05:39;;;;;;;23.20;9.10;;;;;;;13.22;81.01;101956.38;5031799;28;19955;-57
2022/06/13 03:08:31;;;;;;;21.85;8.70;;;;;;;13.20;81.18;101955.72;5046098;28;20020;-57
2022/06/13 03:11:26;;;;;;;19.88;8.60;;;;;;;13.15;81.68;101963.34;5046364;28;20032;-57
2022/06/13 03:14:33;;;;;;;22.83;9.45;;;;;;;13.09;81.52;101961.31;5048003;28;20072;-56
2022/06/13 03:17:10;;;;;;;24.10;9.68;;;;;;;13.02;81.80;101969.97;5041801;28;20040;-57
2022/06/13 03:19:47;;;;;;;20.38;9.73;;;;;;;12.98;81.86;101962.41;5037547;28;20039;-57
2022/06/13 03:22:43;;;;;;;23.10;9.77;;;;;;;12.98;82.07;101973.06;5043272;28;20034;-56
2022/06/13 03:25:28;;;;;;;22.85;9.38;;;;;;;12.98;82.15;101970.41;5041573;28;20025;-56
2022/06/13 03:28:09;;;;;;;26.77;9.98;;;;;;;12.93;82.26;101972.72;5041868;28;20017;-57
2022/06/13 03:30:42;;;;;;;23.17;9.88;;;;;;;12.86;82.47;101964.53;5040648;28;20033;-57
2022/06/13 03:36:05;;;;;;;24.13;9.73;;;;;;;12.81;82.47;101968.66;5040734;28;20451;-56
2022/06/13 03:38:37;;;;;;;22.08;9.90;;;;;;;12.79;83.14;101974.16;5041324;28;20032;-56
2022/06/13 03:41:04;;;;;;;21.45;9.63;;;;;;;12.77;83.23;101983.28;5041923;28;20055;-56
2022/06/13 03:43:51;;;;;;;26.85;10.05;;;;;;;12.73;83.29;101982.78;5043229;28;20033;-56
2022/06/13 03:46:32;;;;;;;20.48;9.68;;;;;;;12.68;83.29;101985.88;5042395;28;20040;-56
2022/06/13 03:49:06;;;;;;;22.23;9.95;;;;;;;12.65;83.12;101980.03;5042110;28;20032;-57
2022/06/13 03:51:40;;;;;;;22.65;9.57;;;;;;;12.63;83.48;101988.19;5042913;28;20033;-56
2022/06/13 03:54:15;;;;;;;20.38;9.70;;;;;;;12.60;83.68;101985.84;5041833;28;20031;-58
2022/06/13 03:56:48;;;;;;;23.60;9.68;;;;;;;12.60;83.62;101983.16;5037104;28;20029;-56
2022/06/13 03:59:29;;;;;;;20.25;9.77;;;;;;;12.61;84.13;101992.84;5042416;28;20044;-57
2022/06/13 04:02:00;;;;;;;27.25;10.73;;;;;;;12.63;83.81;101987.34;5040326;28;20036;-55
2022/06/13 04:04:33;;;;;;;23.40;10.23;;;;;;;12.66;83.74;101993.19;5041639;28;20047;-56
2022/06/13 04:07:01;;;;;;;28.48;10.32;;;;;;;12.64;83.95;101992.53;5044585;28;20107;-56
2022/06/13 04:09:43;;;;;;;28.08;10.90;;;;;;;12.67;84.00;101991.38;5038056;28;20047;-57
2022/06/13 04:12:39;;;;;;;22.02;10.63;;;;;;;12.68;84.50;101988.56;5044065;28;20250;-56
2022/06/13 04:15:13;;;;;;;23.75;11.00;;;;;;;12.70;84.32;102001.72;5042957;28;20033;-56
2022/06/13 04:17:51;;;;;;;23.13;10.48;;;;;;;12.73;84.53;102006.78;5042269;28;20493;-56
2022/06/13 04:20:51;;;;;;;24.92;10.90;;;;;;;12.76;84.67;102000.28;5041419;28;20523;-57
2022/06/13 04:23:21;;;;;;;25.08;10.73;;;;;;;12.79;84.63;101999.97;5039093;28;20472;-56
2022/06/13 04:26:10;;;;;;;23.17;10.57;;;;;;;12.80;84.84;102004.31;5039231;28;20063;-57
2022/06/13 04:28:55;;;;;;;24.20;11.15;;;;;;;12.84;85.12;102008.31;5040021;28;20027;-56
2022/06/13 04:31:22;;;;;;;24.77;11.18;;;;;;;12.88;85.41;102007.84;5039142;28;20033;-55
2022/06/13 04:34:19;;;;;;;27.85;11.27;;;;;;;12.92;85.39;102006.53;5041971;28;20111;-56
2022/06/13 04:36:47;;;;;;;25.90;11.35;;;;;;;12.95;85.66;102014.22;5041412;28;20037;-56
2022/06/13 04:39:15;;;;;;;28.30;11.73;;;;;;;13.00;85.45;102008.41;5038457;28;20056;-57
2022/06/13 04:41:44;;;;;;;23.73;11.25;;;;;;;13.05;85.72;102008.81;5038645;28;20040;-56
2022/06/13 04:44:18;;;;;;;23.80;11.20;;;;;;;13.08;86.08;101999.66;5042930;28;20048;-56
2022/06/13 04:46:44;;;;;;;24.48;11.05;;;;;;;13.15;85.90;102009.50;5039567;28;20017;-56
2022/06/13 04:49:22;;;;;;;30.23;11.80;;;;;;;13.19;86.29;102013.56;5040762;28;20307;-56
2022/06/13 04:51:48;;;;;;;26.98;11.05;;;;;;;13.23;85.81;102016.75;5039566;28;20028;-56
2022/06/13 04:54:25;;;;;;;22.42;11.55;;;;;;;13.25;86.27;102020.94;5040068;28;20079;-55
2022/06/13 04:56:50;;;;;;;26.92;11.25;;;;;;;13.29;86.30;102018.78;5037921;28;20554;-56
2022/06/13 04:59:15;;;;;;;27.10;11.00;;;;;;;13.31;86.62;102019.47;5042243;28;20030;-56
2022/06/13 05:01:45;;;;;;;27.08;11.75;;;;;;;13.36;86.98;102019.00;5036968;28;20040;-56
2022/06/13 05:04:15;;;;;;;24.67;11.30;;;;;;;13.40;87.07;102017.66;5040273;28;20037;-56
2022/06/13 05:06:46;;;;;;;25.52;10.98;;;;;;;13.46;87.08;102014.34;5041123;28;20047;-56
2022/06/13 05:09:11;;;;;;;28.30;11.13;;;;;;;13.50;87.00;102021.88;5038619;28;20396;-56
2022/06/13 05:11:44;;;;;;;30.20;11.00;;;;;;;13.54;87.21;102025.88;5040992;28;20484;-56
2022/06/13 05:14:22;;;;;;;27.67;10.45;;;;;;;13.59;86.59;102026.28;5039397;28;20292;-56
2022/06/13 05:17:15;;;;;;;26.95;10.30;;;;;;;13.63;87.00;102037.47;5043932;28;20400;-56
2022/06/13 05:19:54;;;;;;;26.70;10.30;;;;;;;13.68;86.72;102036.97;5041166;28;20036;-55
2022/06/13 05:22:32;;;;;;;26.40;9.85;;;;;;;13.70;86.61;102038.47;5042703;28;20162;-54
2022/06/13 05:25:23;;;;;;;28.13;10.35;;;;;;;13.78;86.55;102046.50;5038459;28;20055;-55
2022/06/13 05:27:49;;;;;;;28.70;11.50;;;;;;;13.86;86.70;102037.69;5036204;28;20448;-56
2022/06/13 05:30:17;;;;;;;26.13;10.98;;;;;;;13.91;86.31;102040.72;5041157;28;20049;-56
2022/06/13 05:32:43;;;;;;;26.27;9.77;;;;;;;13.95;86.20;102050.06;5041876;28;20029;-57
2022/06/13 05:35:31;;;;;;;23.80;9.50;;;;;;;14.04;85.70;102056.25;5042649;28;20017;-56
2022/06/13 05:37:59;;;;;;;20.50;9.77;;;;;;;14.09;85.48;102053.94;5040698;28;20568;-54
2022/06/13 05:40:25;;;;;;;18.33;8.55;;;;;;;14.17;85.05;102053.97;5042889;28;20038;-56
2022/06/13 05:42:50;;;;;;;19.98;8.52;;;;;;;14.22;84.74;102056.97;5043910;28;20021;-57
2022/06/13 05:45:22;;;;;;;23.88;8.07;;;;;;;14.28;84.56;102053.63;5045963;28;20403;-56
2022/06/13 05:47:49;;;;;;;16.45;7.65;;;;;;;14.37;84.16;102063.31;5044519;28;20017;-57
2022/06/13 05:50:17;;;;;;;18.25;6.22;;;;;;;14.43;83.80;102065.38;5042552;28;20358;-56
2022/06/13 05:52:42;;;;;;;21.65;5.85;;;;;;;14.53;82.50;102073.25;5044827;28;20025;-56
2022/06/13 05:55:08;;;;;;;16.23;6.20;;;;;;;14.67;81.88;102069.06;5045586;28;20365;-56
2022/06/13 05:57:34;;;;;;;17.10;5.68;;;;;;;14.84;81.72;102071.56;5051814;28;20024;-56
2022/06/13 05:59:59;;;;;;;17.15;4.40;;;;;;;14.93;80.78;102068.88;5056631;28;20024;-56
2022/06/13 06:02:24;;;;;;;19.40;5.00;;;;;;;15.05;79.81;102078.25;5050013;28;20071;-55
2022/06/13 06:04:49;;;;;;;14.98;4.82;;;;;;;15.13;78.15;102086.25;5046118;28;20036;-57
2022/06/13 06:07:15;;;;;;;20.45;4.45;;;;;;;15.18;77.26;102100.78;5045155;28;20056;-56
2022/06/13 06:09:40;;;;;;;21.63;4.45;;;;;;;15.25;77.20;102098.25;5055921;28;20036;-57
2022/06/13 06:12:06;;;;;;;17.88;4.20;;;;;;;15.30;76.40;102103.09;5050750;28;20429;-57
2022/06/13 06:14:31;;;;;;;18.90;4.68;;;;;;;15.31;75.27;102099.41;5049080;28;20017;-56
2022/06/13 06:16:56;;;;;;;17.23;4.45;;;;;;;15.30;74.71;102111.13;5047716;28;20040;-57
2022/06/13 06:19:22;;;;;;;19.38;3.97;;;;;;;15.29;74.41;102109.44;5046290;28;20491;-56
2022/06/13 06:21:47;;;;;;;12.48;3.83;;;;;;;15.27;73.67;102114.97;5043407;28;20029;-56
2022/06/13 06:24:13;;;;;;;13.82;3.80;;;;;;;15.29;72.94;102114.81;5042638;28;20035;-56
2022/06/13 06:26:38;;;;;;;10.35;3.50;;;;;;;15.31;72.66;102124.31;5043586;28;20028;-58
2022/06/13 06:29:03;;;;;;;10.80;3.30;;;;;;;15.30;72.02;102113.78;5041146;28;20048;-57
2022/06/13 06:31:29;;;;;;;11.38;3.15;;;;;;;15.38;71.92;102120.00;5042267;28;20036;-57
2022/06/13 06:33:54;;;;;;;12.80;3.13;;;;;;;15.43;71.59;102117.63;5043577;28;20036;-56
2022/06/13 06:36:19;;;;;;;10.52;2.88;;;;;;;15.46;71.04;102119.97;5045859;28;20032;-56
2022/06/13 06:38:45;;;;;;;8.40;3.13;;;;;;;15.49;71.11;102118.78;5042004;28;20025;-57
2022/06/13 06:41:11;;;;;;;12.40;2.95;;;;;;;15.51;70.30;102122.13;5043905;28;20039;-55
2022/06/13 06:43:36;;;;;;;9.95;2.30;;;;;;;15.56;70.22;102113.56;5045719;28;20393;-57
2022/06/13 06:46:02;;;;;;;10.90;2.90;;;;;;;15.63;69.70;102126.16;5048659;28;20099;-56
2022/06/13 06:48:28;;;;;;;13.50;3.40;;;;;;;15.71;70.12;102128.78;5047836;28;20021;-56
2022/06/13 06:50:53;;;;;;;11.13;2.78;;;;;;;15.70;69.69;102137.84;5047703;28;20017;-56
2022/06/13 06:53:22;;;;;;;10.73;2.60;;;;;;;15.68;68.77;102130.97;5049515;28;20043;-56
2022/06/13 07:01:21;;;;;;;10.32;2.50;;;;;;;15.80;67.22;102138.47;4962293;28;20498;-56
2022/06/13 07:03:47;;;;;;;7.57;2.50;;;;;;;15.91;67.27;102139.09;5007069;28;20455;-56
2022/06/13 07:06:13;;;;;;;11.00;2.50;;;;;;;15.98;67.11;102140.06;5053646;28;20029;-56
2022/06/13 07:08:39;;;;;;;8.27;2.28;;;;;;;16.02;66.71;102142.22;5051471;28;20449;-57
2022/06/13 07:13:51;;;;;;;10.98;2.58;;;;;;;16.15;65.61;102141.66;5042535;28;20036;-56
2022/06/13 07:16:17;;;;;;;10.93;2.85;;;;;;;16.16;64.32;102145.16;5044974;28;20029;-57
2022/06/13 07:18:45;;;;;;;8.30;2.22;;;;;;;16.20;64.78;102144.66;5042744;28;20037;-55
2022/06/13 07:21:10;;;;;;;9.07;2.30;;;;;;;16.25;64.09;102139.59;5042395;28;20022;-55
2022/06/13 07:23:36;;;;;;;9.50;2.35;;;;;;;16.32;64.44;102137.06;5046438;28;20026;-56
2022/06/13 07:26:02;;;;;;;9.05;2.55;;;;;;;16.39;64.80;102146.88;5043986;28;20017;-56
2022/06/13 07:28:27;;;;;;;9.43;2.42;;;;;;;16.43;64.59;102145.50;5042392;28;20091;-56
2022/06/13 07:30:53;;;;;;;10.48;2.92;;;;;;;16.43;63.35;102150.88;5052920;28;20036;-56
2022/06/13 07:33:18;;;;;;;10.52;2.45;;;;;;;16.35;62.67;102148.25;5064601;28;20082;-57
2022/06/13 07:35:43;;;;;;;8.85;2.30;;;;;;;16.39;62.48;102143.38;5051939;28;20063;-56
2022/06/13 07:38:16;;;;;;;8.18;2.42;;;;;;;16.39;62.83;102154.94;5053251;28;20107;-56
2022/06/13 07:40:42;;;;;;;8.98;2.35;;;;;;;16.37;62.70;102154.28;5053960;28;20025;-57
2022/06/13 07:43:26;;;;;;;10.35;2.90;;;;;;;16.38;62.96;102155.94;5045277;28;20054;-56
2022/06/13 07:45:52;;;;;;;11.15;2.90;;;;;;;16.46;63.38;102155.03;5051301;28;20115;-56
2022/06/13 07:48:18;;;;;;;12.68;3.00;;;;;;;16.50;63.90;102152.88;5042215;28;20032;-57
2022/06/13 07:50:43;;;;;;;12.95;2.45;;;;;;;16.45;63.88;102152.53;5051940;28;20070;-55
2022/06/13 07:53:09;;;;;;;12.30;3.45;;;;;;;16.42;64.41;102157.25;5056456;28;20044;-54
2022/06/13 07:55:36;;;;;;;9.10;2.72;;;;;;;16.48;63.56;102166.47;5048812;28;20049;-55
2022/06/13 07:58:02;;;;;;;9.73;2.40;;;;;;;16.45;62.54;102177.50;5045175;28;20040;-56
2022/06/13 08:00:34;;;;;;;9.15;2.50;;;;;;;16.47;62.13;102174.66;5065851;28;20020;-55
2022/06/13 08:03:01;;;;;;;9.77;2.72;;;;;;;16.54;62.82;102178.31;5047009;28;20056;-56
2022/06/13 08:05:28;;;;;;;8.43;2.42;;;;;;;16.70;63.23;102172.88;5057524;28;20416;-56
2022/06/13 08:07:53;;;;;;;10.05;2.53;;;;;;;16.88;63.49;102176.09;5048309;28;20307;-56
2022/06/13 08:10:19;;;;;;;9.23;2.33;;;;;;;17.02;62.89;102180.66;5055929;28;20212;-56
2022/06/13 08:12:45;;;;;;;8.93;2.00;;;;;;;17.09;62.08;102193.38;5051398;28;20060;-57
2022/06/13 08:15:12;;;;;;;6.90;2.22;;;;;;;17.04;61.42;102189.38;5048301;28;20047;-57
2022/06/13 08:17:39;;;;;;;8.30;2.28;;;;;;;17.19;61.91;102196.66;5046977;28;20029;-58
2022/06/13 08:20:07;;;;;;;7.75;1.90;;;;;;;17.10;61.05;102190.53;5044817;28;20099;-56
2022/06/13 08:22:33;;;;;;;6.63;1.90;;;;;;;17.13;61.18;102200.06;5057990;28;20024;-57
2022/06/13 08:24:58;;;;;;;5.50;1.60;;;;;;;17.15;60.68;102200.72;5057595;28;20081;-57
2022/06/13 08:27:26;;;;;;;5.68;1.83;;;;;;;17.23;60.18;102201.47;5048274;28;20021;-56
2022/06/13 08:29:51;;;;;;;7.18;1.40;;;;;;;17.27;59.64;102205.47;5046674;28;20017;-56
2022/06/13 08:32:17;;;;;;;4.65;1.40;;;;;;;17.13;58.05;102208.94;5044237;28;20097;-57
2022/06/13 08:34:42;;;;;;;6.63;1.75;;;;;;;17.05;58.08;102214.38;5047338;28;20513;-57
2022/06/13 08:37:07;;;;;;;7.75;1.35;;;;;;;17.15;58.33;102214.97;5045911;28;20021;-58
2022/06/13 08:39:32;;;;;;;6.97;1.55;;;;;;;17.30;58.25;102207.78;5051444;28;20021;-57
2022/06/13 08:42:11;;;;;;;6.65;1.60;;;;;;;17.41;57.68;102221.81;5047470;28;20523;-56
2022/06/13 08:44:59;;;;;;;5.63;1.50;;;;;;;17.52;57.18;102219.50;5055289;28;20373;-56
2022/06/13 08:47:53;;;;;;;7.00;1.70;;;;;;;17.56;57.03;102219.97;5047983;28;20686;-58
2022/06/13 08:50:30;;;;;;;5.28;1.70;;;;;;;17.54;57.16;102225.53;5054376;28;20549;-56
2022/06/13 08:53:00;;;;;;;10.95;1.60;;;;;;;17.42;56.65;102223.47;5042971;28;20033;-56
2022/06/13 08:55:40;;;;;;;7.40;1.67;;;;;;;17.40;56.65;102225.50;5041450;28;20060;-55
2022/06/13 08:58:14;;;;;;;7.50;1.65;;;;;;;17.34;57.49;102221.69;5037163;28;20037;-56
2022/06/13 09:00:48;;;;;;;4.95;1.42;;;;;;;17.29;57.19;102224.06;5037032;28;20656;-57
2022/06/13 09:03:23;;;;;;;4.97;1.50;;;;;;;17.24;57.07;102234.53;5043588;28;20036;-56
2022/06/13 09:06:11;;;;;;;6.20;1.73;;;;;;;17.25;57.32;102239.72;5044832;28;20111;-56
2022/06/13 09:08:48;;;;;;;5.47;1.63;;;;;;;17.52;58.62;102246.38;5054090;28;20023;-57
2022/06/13 09:11:42;;;;;;;6.00;1.55;;;;;;;17.52;57.54;102243.69;5052356;28;20077;-57
2022/06/13 09:14:23;;;;;;;6.97;1.83;;;;;;;17.53;57.63;102247.19;5037786;28;20037;-57
2022/06/13 09:17:19;;;;;;;7.07;1.85;;;;;;;17.57;57.60;102238.59;5045534;28;20283;-56
2022/06/13 09:19:54;;;;;;;6.25;1.33;;;;;;;17.46;56.65;102232.84;5021980;28;20033;-57
2022/06/13 09:22:33;;;;;;;3.30;1.20;;;;;;;17.59;56.31;102244.59;5048329;28;20024;-57
2022/06/13 09:25:10;;;;;;;7.20;1.42;;;;;;;17.72;56.46;102252.09;5048939;28;20385;-56
2022/06/13 09:27:41;;;;;;;5.53;1.50;;;;;;;17.82;55.74;102249.97;5056954;28;20555;-56
2022/06/13 09:30:11;;;;;;;8.60;1.63;;;;;;;18.01;56.10;102243.22;5059024;28;20028;-57
2022/06/13 09:32:58;;;;;;;7.90;1.40;;;;;;;18.23;55.13;102246.84;5061292;28;20023;-54
2022/06/13 09:35:31;;;;;;;5.53;1.30;;;;;;;18.18;53.94;102260.81;5049786;28;20025;-56
2022/06/13 09:38:08;;;;;;;4.55;1.15;;;;;;;18.26;54.04;102260.75;5050818;28;20556;-56
2022/06/13 09:40:39;;;;;;;2.95;1.05;;;;;;;18.43;54.33;102258.66;5048608;28;20028;-56
2022/06/13 09:43:44;;;;;;;5.15;1.35;;;;;;;18.55;53.03;102262.56;5054708;28;20286;-56
2022/06/13 09:46:15;;;;;;;2.60;1.00;;;;;;;18.51;52.69;102260.44;5058520;28;20017;-56
2022/06/13 09:49:03;;;;;;;3.63;1.20;;;;;;;18.71;52.82;102268.75;5044214;28;20095;-58
2022/06/13 09:51:37;;;;;;;5.00;1.30;;;;;;;18.79;51.95;102257.88;5049694;28;20040;-57
2022/06/13 09:54:12;;;;;;;5.20;1.02;;;;;;;18.86;52.51;102262.31;5049545;28;20803;-56
2022/06/13 09:56:46;;;;;;;6.90;1.38;;;;;;;18.90;52.29;102259.25;5055132;28;20020;-56
2022/06/13 09:59:19;;;;;;;2.92;1.10;;;;;;;18.78;51.93;102264.28;5053009;28;20523;-56
2022/06/13 10:02:01;;;;;;;3.67;1.30;;;;;;;18.89;52.21;102269.19;5043305;28;20024;-56
2022/06/13 10:04:51;;;;;;;3.58;1.17;;;;;;;19.09;51.99;102272.94;5045105;28;20021;-57
2022/06/13 10:07:21;;;;;;;4.55;1.20;;;;;;;19.18;51.50;102270.94;5042164;28;20082;-56
2022/06/13 10:10:10;;;;;;;4.85;1.30;;;;;;;19.19;51.27;102276.13;5046647;28;20072;-57
2022/06/13 10:12:46;;;;;;;5.57;1.10;;;;;;;19.15;51.32;102274.03;5046993;28;20108;-57
2022/06/13 10:15:30;;;;;;;11.40;1.52;;;;;;;19.32;51.63;102288.88;5045114;28;20554;-55
2022/06/13 10:18:07;;;;;;;5.63;1.30;;;;;;;19.44;51.78;102284.66;5044353;28;20163;-57
2022/06/13 10:20:50;;;;;;;7.20;1.52;;;;;;;19.54;51.59;102288.91;5048243;28;20029;-56
2022/06/13 10:23:31;;;;;;;6.07;1.45;;;;;;;19.22;50.94;102285.69;5055337;28;20033;-56
2022/06/13 10:26:05;;;;;;;7.32;1.20;;;;;;;18.86;51.10;102286.56;5058231;28;20025;-56
2022/06/13 10:28:39;;;;;;;5.53;1.40;;;;;;;18.75;51.97;102276.25;5048719;28;20017;-57
2022/06/13 10:31:22;;;;;;;8.82;1.60;;;;;;;18.75;52.46;102276.25;5050009;28;20025;-56
2022/06/13 10:33:56;;;;;;;6.03;1.60;;;;;;;18.72;52.17;102282.03;5038490;28;20397;-57
2022/06/13 10:36:38;;;;;;;6.22;1.55;;;;;;;18.55;51.92;102278.72;5048791;28;20033;-56
2022/06/13 10:39:05;;;;;;;7.20;1.50;;;;;;;18.66;53.37;102271.19;5058834;28;20473;-57
2022/06/13 10:41:35;;;;;;;5.53;1.17;;;;;;;18.99;52.49;102276.94;5050584;28;20021;-57
2022/06/13 10:44:02;;;;;;;5.25;1.00;;;;;;;19.06;51.18;102275.16;5047613;28;20642;-56
2022/06/13 10:46:27;;;;;;;6.53;1.58;;;;;;;19.26;51.01;102275.34;5050092;28;20039;-56
2022/06/13 10:49:10;;;;;;;4.05;1.10;;;;;;;19.09;50.66;102282.88;5059625;28;20099;-58
2022/06/13 10:51:38;;;;;;;8.02;1.50;;;;;;;18.92;50.84;102279.56;5058062;28;20523;-55
2022/06/13 10:54:09;;;;;;;4.30;1.20;;;;;;;18.82;51.22;102285.28;5048114;28;20027;-56
2022/06/13 10:56:40;;;;;;;4.43;1.20;;;;;;;18.95;52.25;102281.03;5049087;28;20045;-56
2022/06/13 10:59:05;;;;;;;6.57;1.50;;;;;;;19.09;51.88;102282.88;5048335;28;20032;-57
2022/06/13 11:01:31;;;;;;;6.38;1.30;;;;;;;19.04;50.58;102287.97;5053957;28;20180;-57
2022/06/13 11:04:06;;;;;;;4.35;1.15;;;;;;;19.18;50.21;102285.25;5056131;28;20496;-57
2022/06/13 11:06:34;;;;;;;7.00;1.75;;;;;;;19.08;49.44;102283.88;5048231;28;20024;-56
2022/06/13 11:09:01;;;;;;;3.55;1.20;;;;;;;18.93;49.78;102289.31;5048809;28;20017;-57
2022/06/13 11:11:38;;;;;;;4.45;1.30;;;;;;;18.93;49.87;102286.63;5047810;28;20052;-57
2022/06/13 11:14:15;;;;;;;2.97;1.20;;;;;;;19.04;50.13;102287.97;5029038;28;20068;-56
2022/06/13 11:22:37;;;;;;;7.55;1.25;;;;;;;19.75;50.03;102288.88;5045658;28;20393;-57
2022/06/13 11:25:16;;;;;;;7.50;1.45;;;;;;;19.98;50.80;102296.72;5052429;28;20456;-57
2022/06/13 11:27:42;;;;;;;4.60;1.30;;;;;;;19.84;49.45;102295.78;5047807;28;20016;-56
2022/06/13 11:30:34;;;;;;;6.20;1.38;;;;;;;19.54;49.19;102297.00;5052034;28;20036;-58
2022/06/13 11:33:02;;;;;;;6.53;1.60;;;;;;;19.11;49.55;102292.44;5040960;28;20021;-55
2022/06/13 11:35:44;;;;;;;4.85;1.30;;;;;;;18.83;49.70;102303.09;5046075;28;20280;-57
2022/06/13 11:38:29;;;;;;;4.15;1.50;;;;;;;18.49;50.34;102310.88;5044133;28;20029;-57
2022/06/13 11:41:03;;;;;;;6.20;1.52;;;;;;;18.06;51.36;102310.72;5043370;28;20491;-54
2022/06/13 11:43:37;;;;;;;5.53;1.40;;;;;;;17.91;51.67;102299.09;5057128;28;20028;-56
2022/06/13 11:46:07;;;;;;;8.38;1.80;;;;;;;18.04;53.15;102309.22;5045714;28;20108;-57
2022/06/13 11:48:33;;;;;;;7.68;1.80;;;;;;;18.33;53.75;102305.72;5052960;28;20068;-56
2022/06/13 11:51:02;;;;;;;7.35;1.70;;;;;;;18.71;53.89;102301.88;5045331;28;20025;-55
2022/06/13 11:53:37;;;;;;;;;;;;;;;18.94;52.30;102290.97;5055657;28;20033;-57
2022/06/13 11:56:07;;;;;;;5.35;1.60;;;;;;;19.05;51.81;102292.31;5058500;28;19909;-57
2022/06/13 11:58:40;;;;;;;6.47;1.42;;;;;;;19.12;52.21;102295.94;5051992;28;20036;-57
2022/06/13 12:01:16;;;;;;;4.60;1.58;;;;;;;19.02;50.86;102304.31;5057385;28;20029;-56
2022/06/13 12:03:47;;;;;;;5.45;1.50;;;;;;;18.60;50.62;102301.53;5045498;28;20115;-56